Aviation Digital Data Service (ADDS)

Output produced by METARs form (0947 UTC 21 April 2015)
found at http://aviationweather.gov/adds/metars/
 
KLBT 210520Z 2106/2206 21009KT P6SM SCT120 
     FM210800 25006KT P6SM SCT250 
     FM211100 32006KT P6SM SKC 
     FM211800 28006KT P6SM SKC 
     FM220000 VRB02KT P6SM SKC